DQNA4: Rolling Fork River At Dequeen

                                SHEF ID:       DQNA4     Rolling Fork near DeQueen, AR
STATION TYPE: Stream Gauge

PRECIP STAGE RIV-FLOW BAT-LOAD
in ft cfs volt
Ccp-Rev Ccp-Rev Ccp-Rev Ccp-Rev
(America/Chicago)
04/29 00:00 0.00 3.30 235 12.65
04/29 01:00 0.00 3.40 260 12.65
04/29 02:00 0.01 3.47 273 12.65
04/29 03:00 0.00 3.50 277 12.65
04/29 04:00 0.00 3.50 277 12.57
04/29 05:00 0.00 3.48 274 12.57
04/29 06:00 0.00 3.44 268 12.57
04/29 07:00 0.00 3.40 260 12.57
04/29 08:00 0.00 3.35 246 12.65
04/29 09:00 0.00 3.31 236 13.05
04/29 10:00 0.00 3.28 232 13.60
04/29 11:00 0.00 3.24 225 13.68
04/29 12:00 0.00 3.21 221 13.68
04/29 13:00 0.00 3.21 221 13.60
04/29 14:00 0.00 3.55 287 13.29
04/29 15:00 0.00 4.54 546 13.37
04/29 16:00 0.00 5.41 775 13.37
04/29 17:00 0.00 5.86 901 13.21
04/29 18:00 0.00 6.09 965 13.37
04/29 19:00 0.01 6.19 993 13.37
04/29 20:00 0.00 6.25 1010 13.29
04/29 21:00 0.00 6.30 1024 12.89
04/29 22:00 0.00 6.32 1030 12.81
04/29 23:00 0.00 6.35 1038 12.81
Data processed at Thu 30Apr2026 04:11 GMT

NOTICE: If you are parsing this page

Please convert to using our Data API. Starting early 2026 we will be migrating to: https://water.usace.army.mil with modern pages rendered in JavaScript. When this migration completes you will no longer be able to scrape this page! CWMSDataAPI (CDA)

Timeseries IDs (TSIDs)

TSIDs used from left to right in the data table
DEQR.Precip-Inc.Total.1Hour.1Hour.Ccp-Rev
DEQR.Stage.Inst.1Hour.0.Ccp-Rev
DEQR.Flow.Inst.1Hour.0.Ccp-Rev
DEQR.Volt-Battery Load.Inst.1Hour.0.Ccp-Rev

                            

All information presented herein is the property of the government of the United States of America and may be revised or deleted at any time without prior notice. Dissemination of this information without the expressed written consent of the Public Affairs Office, Tulsa District U.S. Army Corps of Engineers is strictly prohibited. These data are gathered electronically and, as presented, have NOT undergone any form of quality control. These data are NOT guaranteed to be valid or correct.